<?xml version="1.0" encoding="UTF-8" standalone="no" ?>
<gpx xmlns="http://www.topografix.com/GPX/1/1" xmlns:xsi="http://www.w3.org/2001/XMLSchema-instance" xsi:schemaLocation="http://www.topografix.com/GPX/1/1 http://www.topografix.com/GPX/1/1/gpx.xsd" version="1.1" creator="VisuGPX - https://www.visugpx.com">
  <metadata>
    <name>2025-02-01  Randonnée TwoNav</name>
    <desc><![CDATA[2025-02-01_115831.trk]]></desc>
  </metadata>
  <trk>
    <name><![CDATA[2025-02-01  Randonnée TwoNav_1]]></name>
    <trkseg>
      <trkpt lat="48.19302" lon="6.51532">
        <ele>376.5</ele>
        <time>2025-02-01T10:58:31Z</time>
      </trkpt>
      <trkpt lat="48.19304" lon="6.51529">
        <ele>376.5</ele>
        <time>2025-02-01T10:58:32Z</time>
      </trkpt>
      <trkpt lat="48.19304" lon="6.51528">
        <ele>376.6</ele>
        <time>2025-02-01T10:58:33Z</time>
      </trkpt>
      <trkpt lat="48.19296" lon="6.51519">
        <ele>376.7</ele>
        <time>2025-02-01T10:58:46Z</time>
      </trkpt>
      <trkpt lat="48.19287" lon="6.51516">
        <ele>376.9</ele>
        <time>2025-02-01T10:58:55Z</time>
      </trkpt>
      <trkpt lat="48.19277" lon="6.51515">
        <ele>377</ele>
        <time>2025-02-01T10:59:14Z</time>
      </trkpt>
      <trkpt lat="48.19268" lon="6.5152">
        <ele>377</ele>
        <time>2025-02-01T10:59:21Z</time>
      </trkpt>
      <trkpt lat="48.1926" lon="6.51528">
        <ele>377.1</ele>
        <time>2025-02-01T10:59:28Z</time>
      </trkpt>
      <trkpt lat="48.19256" lon="6.51541">
        <ele>377.2</ele>
        <time>2025-02-01T10:59:36Z</time>
      </trkpt>
      <trkpt lat="48.1925" lon="6.51554">
        <ele>377.4</ele>
        <time>2025-02-01T10:59:43Z</time>
      </trkpt>
      <trkpt lat="48.1924" lon="6.51549">
        <ele>377.6</ele>
        <time>2025-02-01T10:59:58Z</time>
      </trkpt>
      <trkpt lat="48.19235" lon="6.51538">
        <ele>377.8</ele>
        <time>2025-02-01T11:00:06Z</time>
      </trkpt>
      <trkpt lat="48.19228" lon="6.51528">
        <ele>378</ele>
        <time>2025-02-01T11:00:15Z</time>
      </trkpt>
      <trkpt lat="48.19224" lon="6.51516">
        <ele>378.2</ele>
        <time>2025-02-01T11:00:21Z</time>
      </trkpt>
      <trkpt lat="48.1922" lon="6.51502">
        <ele>378.4</ele>
        <time>2025-02-01T11:00:31Z</time>
      </trkpt>
      <trkpt lat="48.19216" lon="6.51486">
        <ele>378.6</ele>
        <time>2025-02-01T11:00:41Z</time>
      </trkpt>
      <trkpt lat="48.19208" lon="6.51476">
        <ele>378.7</ele>
        <time>2025-02-01T11:00:47Z</time>
      </trkpt>
      <trkpt lat="48.192" lon="6.51467">
        <ele>378.8</ele>
        <time>2025-02-01T11:00:53Z</time>
      </trkpt>
      <trkpt lat="48.19193" lon="6.51459">
        <ele>378.8</ele>
        <time>2025-02-01T11:00:59Z</time>
      </trkpt>
      <trkpt lat="48.19185" lon="6.5145">
        <ele>378.8</ele>
        <time>2025-02-01T11:01:05Z</time>
      </trkpt>
      <trkpt lat="48.19178" lon="6.51442">
        <ele>378.8</ele>
        <time>2025-02-01T11:01:14Z</time>
      </trkpt>
      <trkpt lat="48.19173" lon="6.51453">
        <ele>378.8</ele>
        <time>2025-02-01T11:01:36Z</time>
      </trkpt>
      <trkpt lat="48.19178" lon="6.51465">
        <ele>378.8</ele>
        <time>2025-02-01T11:01:44Z</time>
      </trkpt>
      <trkpt lat="48.19183" lon="6.51477">
        <ele>378.8</ele>
        <time>2025-02-01T11:01:52Z</time>
      </trkpt>
      <trkpt lat="48.19184" lon="6.51491">
        <ele>378.8</ele>
        <time>2025-02-01T11:02:05Z</time>
      </trkpt>
      <trkpt lat="48.19187" lon="6.51505">
        <ele>378.9</ele>
        <time>2025-02-01T11:02:14Z</time>
      </trkpt>
      <trkpt lat="48.19189" lon="6.51519">
        <ele>379</ele>
        <time>2025-02-01T11:02:21Z</time>
      </trkpt>
      <trkpt lat="48.19193" lon="6.51532">
        <ele>379.2</ele>
        <time>2025-02-01T11:02:31Z</time>
      </trkpt>
      <trkpt lat="48.19194" lon="6.51545">
        <ele>379.4</ele>
        <time>2025-02-01T11:02:40Z</time>
      </trkpt>
      <trkpt lat="48.19193" lon="6.51561">
        <ele>379.7</ele>
        <time>2025-02-01T11:02:46Z</time>
      </trkpt>
      <trkpt lat="48.19193" lon="6.51575">
        <ele>379.8</ele>
        <time>2025-02-01T11:02:52Z</time>
      </trkpt>
      <trkpt lat="48.19195" lon="6.51588">
        <ele>380</ele>
        <time>2025-02-01T11:03:01Z</time>
      </trkpt>
      <trkpt lat="48.19197" lon="6.51603">
        <ele>380.3</ele>
        <time>2025-02-01T11:03:08Z</time>
      </trkpt>
      <trkpt lat="48.19198" lon="6.51618">
        <ele>380.6</ele>
        <time>2025-02-01T11:03:15Z</time>
      </trkpt>
      <trkpt lat="48.19195" lon="6.51632">
        <ele>381</ele>
        <time>2025-02-01T11:03:25Z</time>
      </trkpt>
      <trkpt lat="48.19194" lon="6.51634">
        <ele>381.1</ele>
        <time>2025-02-01T11:03:29Z</time>
      </trkpt>
      <trkpt lat="48.19193" lon="6.51635">
        <ele>381.2</ele>
        <time>2025-02-01T11:03:30Z</time>
      </trkpt>
      <trkpt lat="48.19193" lon="6.51634">
        <ele>381.2</ele>
        <time>2025-02-01T11:03:31Z</time>
      </trkpt>
      <trkpt lat="48.1919" lon="6.51634">
        <ele>381.4</ele>
        <time>2025-02-01T11:03:35Z</time>
      </trkpt>
      <trkpt lat="48.1919" lon="6.51635">
        <ele>381.4</ele>
        <time>2025-02-01T11:03:36Z</time>
      </trkpt>
      <trkpt lat="48.19186" lon="6.51642">
        <ele>381.8</ele>
        <time>2025-02-01T11:03:51Z</time>
      </trkpt>
      <trkpt lat="48.19186" lon="6.51642">
        <ele>381.8</ele>
        <time>2025-02-01T11:03:52Z</time>
      </trkpt>
      <trkpt lat="48.19186" lon="6.51642">
        <ele>381.9</ele>
        <time>2025-02-01T11:03:53Z</time>
      </trkpt>
      <trkpt lat="48.19185" lon="6.51644">
        <ele>382</ele>
        <time>2025-02-01T11:03:54Z</time>
      </trkpt>
      <trkpt lat="48.19185" lon="6.51645">
        <ele>382</ele>
        <time>2025-02-01T11:03:55Z</time>
      </trkpt>
      <trkpt lat="48.19185" lon="6.51646">
        <ele>382</ele>
        <time>2025-02-01T11:03:56Z</time>
      </trkpt>
      <trkpt lat="48.19183" lon="6.51651">
        <ele>382.3</ele>
        <time>2025-02-01T11:04:02Z</time>
      </trkpt>
      <trkpt lat="48.19183" lon="6.51651">
        <ele>382.3</ele>
        <time>2025-02-01T11:04:03Z</time>
      </trkpt>
      <trkpt lat="48.19183" lon="6.51652">
        <ele>382.3</ele>
        <time>2025-02-01T11:04:04Z</time>
      </trkpt>
      <trkpt lat="48.19182" lon="6.51653">
        <ele>382.4</ele>
        <time>2025-02-01T11:04:11Z</time>
      </trkpt>
      <trkpt lat="48.19182" lon="6.51654">
        <ele>382.4</ele>
        <time>2025-02-01T11:04:12Z</time>
      </trkpt>
      <trkpt lat="48.19182" lon="6.51653">
        <ele>382.5</ele>
        <time>2025-02-01T11:04:13Z</time>
      </trkpt>
      <trkpt lat="48.19182" lon="6.51653">
        <ele>382.5</ele>
        <time>2025-02-01T11:04:14Z</time>
      </trkpt>
      <trkpt lat="48.19181" lon="6.51653">
        <ele>382.5</ele>
        <time>2025-02-01T11:04:15Z</time>
      </trkpt>
      <trkpt lat="48.19182" lon="6.51654">
        <ele>382.5</ele>
        <time>2025-02-01T11:04:27Z</time>
      </trkpt>
      <trkpt lat="48.19182" lon="6.51655">
        <ele>382.6</ele>
        <time>2025-02-01T11:04:28Z</time>
      </trkpt>
      <trkpt lat="48.19179" lon="6.51669">
        <ele>383.2</ele>
        <time>2025-02-01T11:04:39Z</time>
      </trkpt>
      <trkpt lat="48.19177" lon="6.51682">
        <ele>383.8</ele>
        <time>2025-02-01T11:04:47Z</time>
      </trkpt>
      <trkpt lat="48.19176" lon="6.51684">
        <ele>383.9</ele>
        <time>2025-02-01T11:04:51Z</time>
      </trkpt>
      <trkpt lat="48.19176" lon="6.51684">
        <ele>383.9</ele>
        <time>2025-02-01T11:04:52Z</time>
      </trkpt>
      <trkpt lat="48.19176" lon="6.51684">
        <ele>384</ele>
        <time>2025-02-01T11:04:53Z</time>
      </trkpt>
      <trkpt lat="48.19175" lon="6.51689">
        <ele>384.2</ele>
        <time>2025-02-01T11:04:57Z</time>
      </trkpt>
      <trkpt lat="48.19175" lon="6.5169">
        <ele>384.3</ele>
        <time>2025-02-01T11:04:58Z</time>
      </trkpt>
      <trkpt lat="48.19174" lon="6.51692">
        <ele>384.4</ele>
        <time>2025-02-01T11:04:59Z</time>
      </trkpt>
      <trkpt lat="48.19168" lon="6.51703">
        <ele>385.1</ele>
        <time>2025-02-01T11:05:07Z</time>
      </trkpt>
      <trkpt lat="48.19163" lon="6.51715">
        <ele>385.9</ele>
        <time>2025-02-01T11:05:16Z</time>
      </trkpt>
      <trkpt lat="48.19158" lon="6.51728">
        <ele>386.7</ele>
        <time>2025-02-01T11:05:25Z</time>
      </trkpt>
      <trkpt lat="48.19154" lon="6.51732">
        <ele>387</ele>
        <time>2025-02-01T11:05:32Z</time>
      </trkpt>
      <trkpt lat="48.19154" lon="6.51732">
        <ele>387</ele>
        <time>2025-02-01T11:05:33Z</time>
      </trkpt>
      <trkpt lat="48.19153" lon="6.51732">
        <ele>387.1</ele>
        <time>2025-02-01T11:05:34Z</time>
      </trkpt>
      <trkpt lat="48.19153" lon="6.51733">
        <ele>387.1</ele>
        <time>2025-02-01T11:05:35Z</time>
      </trkpt>
      <trkpt lat="48.19146" lon="6.51743">
        <ele>387.7</ele>
        <time>2025-02-01T11:05:45Z</time>
      </trkpt>
      <trkpt lat="48.19142" lon="6.51755">
        <ele>388.4</ele>
        <time>2025-02-01T11:05:53Z</time>
      </trkpt>
      <trkpt lat="48.19139" lon="6.51768">
        <ele>389.1</ele>
        <time>2025-02-01T11:06:02Z</time>
      </trkpt>
      <trkpt lat="48.19132" lon="6.51778">
        <ele>389.9</ele>
        <time>2025-02-01T11:06:11Z</time>
      </trkpt>
      <trkpt lat="48.19126" lon="6.51789">
        <ele>390.7</ele>
        <time>2025-02-01T11:06:19Z</time>
      </trkpt>
      <trkpt lat="48.19121" lon="6.518">
        <ele>391.5</ele>
        <time>2025-02-01T11:06:27Z</time>
      </trkpt>
      <trkpt lat="48.19114" lon="6.51812">
        <ele>392.4</ele>
        <time>2025-02-01T11:06:37Z</time>
      </trkpt>
      <trkpt lat="48.1911" lon="6.51824">
        <ele>393.2</ele>
        <time>2025-02-01T11:06:44Z</time>
      </trkpt>
      <trkpt lat="48.19104" lon="6.51834">
        <ele>394</ele>
        <time>2025-02-01T11:06:52Z</time>
      </trkpt>
      <trkpt lat="48.19098" lon="6.51844">
        <ele>394.8</ele>
        <time>2025-02-01T11:07:04Z</time>
      </trkpt>
      <trkpt lat="48.19091" lon="6.51834">
        <ele>395.5</ele>
        <time>2025-02-01T11:07:20Z</time>
      </trkpt>
      <trkpt lat="48.19082" lon="6.51828">
        <ele>396.4</ele>
        <time>2025-02-01T11:07:27Z</time>
      </trkpt>
      <trkpt lat="48.19073" lon="6.51825">
        <ele>397.1</ele>
        <time>2025-02-01T11:07:34Z</time>
      </trkpt>
      <trkpt lat="48.19064" lon="6.51828">
        <ele>397.9</ele>
        <time>2025-02-01T11:07:46Z</time>
      </trkpt>
      <trkpt lat="48.1906" lon="6.51841">
        <ele>398.2</ele>
        <time>2025-02-01T11:07:55Z</time>
      </trkpt>
      <trkpt lat="48.1906" lon="6.51856">
        <ele>398.5</ele>
        <time>2025-02-01T11:08:03Z</time>
      </trkpt>
      <trkpt lat="48.19059" lon="6.51871">
        <ele>398.9</ele>
        <time>2025-02-01T11:08:10Z</time>
      </trkpt>
      <trkpt lat="48.19059" lon="6.51885">
        <ele>399.2</ele>
        <time>2025-02-01T11:08:19Z</time>
      </trkpt>
      <trkpt lat="48.19056" lon="6.51898">
        <ele>399.4</ele>
        <time>2025-02-01T11:08:26Z</time>
      </trkpt>
      <trkpt lat="48.19054" lon="6.51912">
        <ele>399.7</ele>
        <time>2025-02-01T11:08:34Z</time>
      </trkpt>
      <trkpt lat="48.19053" lon="6.51926">
        <ele>399.9</ele>
        <time>2025-02-01T11:08:43Z</time>
      </trkpt>
      <trkpt lat="48.1905" lon="6.5194">
        <ele>400.1</ele>
        <time>2025-02-01T11:08:52Z</time>
      </trkpt>
      <trkpt lat="48.19048" lon="6.51954">
        <ele>400.3</ele>
        <time>2025-02-01T11:09:02Z</time>
      </trkpt>
      <trkpt lat="48.19045" lon="6.51967">
        <ele>400.5</ele>
        <time>2025-02-01T11:09:09Z</time>
      </trkpt>
      <trkpt lat="48.19043" lon="6.51982">
        <ele>400.6</ele>
        <time>2025-02-01T11:09:17Z</time>
      </trkpt>
      <trkpt lat="48.19042" lon="6.51996">
        <ele>400.7</ele>
        <time>2025-02-01T11:09:26Z</time>
      </trkpt>
      <trkpt lat="48.19041" lon="6.5201">
        <ele>400.8</ele>
        <time>2025-02-01T11:09:34Z</time>
      </trkpt>
      <trkpt lat="48.19042" lon="6.52023">
        <ele>400.8</ele>
        <time>2025-02-01T11:09:40Z</time>
      </trkpt>
      <trkpt lat="48.19042" lon="6.52038">
        <ele>400.9</ele>
        <time>2025-02-01T11:09:47Z</time>
      </trkpt>
      <trkpt lat="48.19044" lon="6.52053">
        <ele>401</ele>
        <time>2025-02-01T11:09:56Z</time>
      </trkpt>
      <trkpt lat="48.19046" lon="6.52066">
        <ele>401.1</ele>
        <time>2025-02-01T11:10:03Z</time>
      </trkpt>
      <trkpt lat="48.19049" lon="6.5208">
        <ele>401.4</ele>
        <time>2025-02-01T11:10:11Z</time>
      </trkpt>
      <trkpt lat="48.19052" lon="6.52093">
        <ele>401.7</ele>
        <time>2025-02-01T11:10:20Z</time>
      </trkpt>
      <trkpt lat="48.19056" lon="6.52105">
        <ele>402.1</ele>
        <time>2025-02-01T11:10:29Z</time>
      </trkpt>
      <trkpt lat="48.19058" lon="6.52119">
        <ele>402.6</ele>
        <time>2025-02-01T11:10:39Z</time>
      </trkpt>
      <trkpt lat="48.19058" lon="6.52133">
        <ele>403.1</ele>
        <time>2025-02-01T11:10:47Z</time>
      </trkpt>
      <trkpt lat="48.19062" lon="6.52146">
        <ele>403.6</ele>
        <time>2025-02-01T11:10:56Z</time>
      </trkpt>
      <trkpt lat="48.19063" lon="6.52149">
        <ele>403.7</ele>
        <time>2025-02-01T11:10:59Z</time>
      </trkpt>
      <trkpt lat="48.19063" lon="6.5215">
        <ele>403.7</ele>
        <time>2025-02-01T11:11:00Z</time>
      </trkpt>
      <trkpt lat="48.19063" lon="6.52151">
        <ele>403.7</ele>
        <time>2025-02-01T11:11:01Z</time>
      </trkpt>
      <trkpt lat="48.19064" lon="6.52152">
        <ele>403.8</ele>
        <time>2025-02-01T11:11:02Z</time>
      </trkpt>
      <trkpt lat="48.19064" lon="6.52153">
        <ele>403.8</ele>
        <time>2025-02-01T11:11:03Z</time>
      </trkpt>
      <trkpt lat="48.19065" lon="6.52154">
        <ele>403.9</ele>
        <time>2025-02-01T11:11:06Z</time>
      </trkpt>
      <trkpt lat="48.19065" lon="6.52154">
        <ele>403.9</ele>
        <time>2025-02-01T11:11:07Z</time>
      </trkpt>
      <trkpt lat="48.19065" lon="6.52154">
        <ele>403.9</ele>
        <time>2025-02-01T11:11:08Z</time>
      </trkpt>
      <trkpt lat="48.19064" lon="6.52156">
        <ele>404</ele>
        <time>2025-02-01T11:11:11Z</time>
      </trkpt>
      <trkpt lat="48.19064" lon="6.52157">
        <ele>404</ele>
        <time>2025-02-01T11:11:12Z</time>
      </trkpt>
      <trkpt lat="48.19063" lon="6.52158">
        <ele>404</ele>
        <time>2025-02-01T11:11:13Z</time>
      </trkpt>
      <trkpt lat="48.19065" lon="6.52172">
        <ele>404.5</ele>
        <time>2025-02-01T11:11:20Z</time>
      </trkpt>
      <trkpt lat="48.19065" lon="6.52186">
        <ele>405</ele>
        <time>2025-02-01T11:11:28Z</time>
      </trkpt>
      <trkpt lat="48.19066" lon="6.522">
        <ele>405.4</ele>
        <time>2025-02-01T11:11:37Z</time>
      </trkpt>
      <trkpt lat="48.19064" lon="6.52211">
        <ele>405.7</ele>
        <time>2025-02-01T11:11:49Z</time>
      </trkpt>
      <trkpt lat="48.19064" lon="6.52211">
        <ele>405.7</ele>
        <time>2025-02-01T11:11:50Z</time>
      </trkpt>
      <trkpt lat="48.19063" lon="6.52213">
        <ele>405.7</ele>
        <time>2025-02-01T11:11:54Z</time>
      </trkpt>
      <trkpt lat="48.19062" lon="6.52214">
        <ele>405.7</ele>
        <time>2025-02-01T11:11:55Z</time>
      </trkpt>
      <trkpt lat="48.1906" lon="6.52227">
        <ele>406</ele>
        <time>2025-02-01T11:12:05Z</time>
      </trkpt>
      <trkpt lat="48.1906" lon="6.52235">
        <ele>406.1</ele>
        <time>2025-02-01T11:12:14Z</time>
      </trkpt>
      <trkpt lat="48.1906" lon="6.52236">
        <ele>406.1</ele>
        <time>2025-02-01T11:12:15Z</time>
      </trkpt>
      <trkpt lat="48.19062" lon="6.5224">
        <ele>406.2</ele>
        <time>2025-02-01T11:12:29Z</time>
      </trkpt>
      <trkpt lat="48.19062" lon="6.5224">
        <ele>406.2</ele>
        <time>2025-02-01T11:12:30Z</time>
      </trkpt>
      <trkpt lat="48.19062" lon="6.5224">
        <ele>406.2</ele>
        <time>2025-02-01T11:12:31Z</time>
      </trkpt>
      <trkpt lat="48.19062" lon="6.5224">
        <ele>406.2</ele>
        <time>2025-02-01T11:12:32Z</time>
      </trkpt>
      <trkpt lat="48.19062" lon="6.5224">
        <ele>406.2</ele>
        <time>2025-02-01T11:12:33Z</time>
      </trkpt>
      <trkpt lat="48.19062" lon="6.52241">
        <ele>406.2</ele>
        <time>2025-02-01T11:12:37Z</time>
      </trkpt>
      <trkpt lat="48.19062" lon="6.52242">
        <ele>406.2</ele>
        <time>2025-02-01T11:12:38Z</time>
      </trkpt>
      <trkpt lat="48.19062" lon="6.52243">
        <ele>406.2</ele>
        <time>2025-02-01T11:12:39Z</time>
      </trkpt>
      <trkpt lat="48.19062" lon="6.52242">
        <ele>406.2</ele>
        <time>2025-02-01T11:12:40Z</time>
      </trkpt>
      <trkpt lat="48.19062" lon="6.52242">
        <ele>406.2</ele>
        <time>2025-02-01T11:12:41Z</time>
      </trkpt>
      <trkpt lat="48.19061" lon="6.52244">
        <ele>406.2</ele>
        <time>2025-02-01T11:12:46Z</time>
      </trkpt>
      <trkpt lat="48.19062" lon="6.52245">
        <ele>406.2</ele>
        <time>2025-02-01T11:12:47Z</time>
      </trkpt>
      <trkpt lat="48.19062" lon="6.52247">
        <ele>406.3</ele>
        <time>2025-02-01T11:12:48Z</time>
      </trkpt>
      <trkpt lat="48.19061" lon="6.5226">
        <ele>406.5</ele>
        <time>2025-02-01T11:12:55Z</time>
      </trkpt>
      <trkpt lat="48.19062" lon="6.52262">
        <ele>406.5</ele>
        <time>2025-02-01T11:12:57Z</time>
      </trkpt>
      <trkpt lat="48.19062" lon="6.52262">
        <ele>406.5</ele>
        <time>2025-02-01T11:12:58Z</time>
      </trkpt>
      <trkpt lat="48.19062" lon="6.52262">
        <ele>406.5</ele>
        <time>2025-02-01T11:12:59Z</time>
      </trkpt>
      <trkpt lat="48.19063" lon="6.52265">
        <ele>406.6</ele>
        <time>2025-02-01T11:13:26Z</time>
      </trkpt>
      <trkpt lat="48.19063" lon="6.52266">
        <ele>406.6</ele>
        <time>2025-02-01T11:13:27Z</time>
      </trkpt>
      <trkpt lat="48.19064" lon="6.52265">
        <ele>406.6</ele>
        <time>2025-02-01T11:13:28Z</time>
      </trkpt>
      <trkpt lat="48.19064" lon="6.52265">
        <ele>406.6</ele>
        <time>2025-02-01T11:13:29Z</time>
      </trkpt>
      <trkpt lat="48.19064" lon="6.52265">
        <ele>406.6</ele>
        <time>2025-02-01T11:13:30Z</time>
      </trkpt>
      <trkpt lat="48.19063" lon="6.52266">
        <ele>406.6</ele>
        <time>2025-02-01T11:14:17Z</time>
      </trkpt>
      <trkpt lat="48.19062" lon="6.52268">
        <ele>406.7</ele>
        <time>2025-02-01T11:14:18Z</time>
      </trkpt>
      <trkpt lat="48.19061" lon="6.5227">
        <ele>406.7</ele>
        <time>2025-02-01T11:14:21Z</time>
      </trkpt>
      <trkpt lat="48.19061" lon="6.5227">
        <ele>406.7</ele>
        <time>2025-02-01T11:14:22Z</time>
      </trkpt>
      <trkpt lat="48.19061" lon="6.5227">
        <ele>406.7</ele>
        <time>2025-02-01T11:14:23Z</time>
      </trkpt>
      <trkpt lat="48.1906" lon="6.52271">
        <ele>406.7</ele>
        <time>2025-02-01T11:14:45Z</time>
      </trkpt>
      <trkpt lat="48.1906" lon="6.52272">
        <ele>406.8</ele>
        <time>2025-02-01T11:14:46Z</time>
      </trkpt>
      <trkpt lat="48.19054" lon="6.52283">
        <ele>407</ele>
        <time>2025-02-01T11:14:54Z</time>
      </trkpt>
      <trkpt lat="48.19052" lon="6.52286">
        <ele>407</ele>
        <time>2025-02-01T11:15:01Z</time>
      </trkpt>
      <trkpt lat="48.19052" lon="6.52286">
        <ele>407</ele>
        <time>2025-02-01T11:15:02Z</time>
      </trkpt>
      <trkpt lat="48.19052" lon="6.52286">
        <ele>407</ele>
        <time>2025-02-01T11:15:03Z</time>
      </trkpt>
      <trkpt lat="48.19051" lon="6.52288">
        <ele>407.1</ele>
        <time>2025-02-01T11:15:24Z</time>
      </trkpt>
      <trkpt lat="48.19051" lon="6.52288">
        <ele>407.1</ele>
        <time>2025-02-01T11:15:25Z</time>
      </trkpt>
      <trkpt lat="48.19051" lon="6.5229">
        <ele>407.1</ele>
        <time>2025-02-01T11:15:26Z</time>
      </trkpt>
      <trkpt lat="48.19047" lon="6.52302">
        <ele>407.3</ele>
        <time>2025-02-01T11:15:35Z</time>
      </trkpt>
      <trkpt lat="48.1904" lon="6.52311">
        <ele>407.4</ele>
        <time>2025-02-01T11:15:43Z</time>
      </trkpt>
      <trkpt lat="48.19037" lon="6.52325">
        <ele>407.6</ele>
        <time>2025-02-01T11:15:56Z</time>
      </trkpt>
      <trkpt lat="48.19033" lon="6.52337">
        <ele>408</ele>
        <time>2025-02-01T11:16:05Z</time>
      </trkpt>
      <trkpt lat="48.19026" lon="6.5235">
        <ele>408.6</ele>
        <time>2025-02-01T11:16:15Z</time>
      </trkpt>
      <trkpt lat="48.19018" lon="6.52358">
        <ele>409.3</ele>
        <time>2025-02-01T11:16:23Z</time>
      </trkpt>
      <trkpt lat="48.19012" lon="6.52369">
        <ele>410.1</ele>
        <time>2025-02-01T11:16:33Z</time>
      </trkpt>
      <trkpt lat="48.19005" lon="6.52378">
        <ele>410.8</ele>
        <time>2025-02-01T11:16:40Z</time>
      </trkpt>
      <trkpt lat="48.18998" lon="6.52388">
        <ele>411.3</ele>
        <time>2025-02-01T11:16:48Z</time>
      </trkpt>
      <trkpt lat="48.1899" lon="6.52395">
        <ele>411.2</ele>
        <time>2025-02-01T11:16:58Z</time>
      </trkpt>
      <trkpt lat="48.18989" lon="6.52411">
        <ele>411</ele>
        <time>2025-02-01T11:17:18Z</time>
      </trkpt>
      <trkpt lat="48.18989" lon="6.52425">
        <ele>410.7</ele>
        <time>2025-02-01T11:17:26Z</time>
      </trkpt>
      <trkpt lat="48.18987" lon="6.52434">
        <ele>410.6</ele>
        <time>2025-02-01T11:17:34Z</time>
      </trkpt>
      <trkpt lat="48.18987" lon="6.52434">
        <ele>410.6</ele>
        <time>2025-02-01T11:17:35Z</time>
      </trkpt>
      <trkpt lat="48.18987" lon="6.52434">
        <ele>410.6</ele>
        <time>2025-02-01T11:17:36Z</time>
      </trkpt>
      <trkpt lat="48.18985" lon="6.52438">
        <ele>410.5</ele>
        <time>2025-02-01T11:17:46Z</time>
      </trkpt>
      <trkpt lat="48.18985" lon="6.52438">
        <ele>410.5</ele>
        <time>2025-02-01T11:17:47Z</time>
      </trkpt>
      <trkpt lat="48.18985" lon="6.52438">
        <ele>410.5</ele>
        <time>2025-02-01T11:17:48Z</time>
      </trkpt>
      <trkpt lat="48.18985" lon="6.52438">
        <ele>410.5</ele>
        <time>2025-02-01T11:17:49Z</time>
      </trkpt>
      <trkpt lat="48.18985" lon="6.52438">
        <ele>410.5</ele>
        <time>2025-02-01T11:17:50Z</time>
      </trkpt>
      <trkpt lat="48.18984" lon="6.52442">
        <ele>410.4</ele>
        <time>2025-02-01T11:17:54Z</time>
      </trkpt>
      <trkpt lat="48.18984" lon="6.52442">
        <ele>410.4</ele>
        <time>2025-02-01T11:17:55Z</time>
      </trkpt>
      <trkpt lat="48.18984" lon="6.52442">
        <ele>410.4</ele>
        <time>2025-02-01T11:17:59Z</time>
      </trkpt>
      <trkpt lat="48.18984" lon="6.52443">
        <ele>410.4</ele>
        <time>2025-02-01T11:18:00Z</time>
      </trkpt>
      <trkpt lat="48.18985" lon="6.52445">
        <ele>410.3</ele>
        <time>2025-02-01T11:18:12Z</time>
      </trkpt>
      <trkpt lat="48.18985" lon="6.52446">
        <ele>410.3</ele>
        <time>2025-02-01T11:18:13Z</time>
      </trkpt>
      <trkpt lat="48.18985" lon="6.52447">
        <ele>410.3</ele>
        <time>2025-02-01T11:18:17Z</time>
      </trkpt>
      <trkpt lat="48.18985" lon="6.52447">
        <ele>410.3</ele>
        <time>2025-02-01T11:18:18Z</time>
      </trkpt>
      <trkpt lat="48.18986" lon="6.52449">
        <ele>410.3</ele>
        <time>2025-02-01T11:18:27Z</time>
      </trkpt>
      <trkpt lat="48.18986" lon="6.5245">
        <ele>410.2</ele>
        <time>2025-02-01T11:18:28Z</time>
      </trkpt>
      <trkpt lat="48.18986" lon="6.52451">
        <ele>410.2</ele>
        <time>2025-02-01T11:18:29Z</time>
      </trkpt>
      <trkpt lat="48.18994" lon="6.52453">
        <ele>410</ele>
        <time>2025-02-01T11:18:39Z</time>
      </trkpt>
      <trkpt lat="48.18994" lon="6.52454">
        <ele>410</ele>
        <time>2025-02-01T11:18:40Z</time>
      </trkpt>
      <trkpt lat="48.18994" lon="6.52454">
        <ele>410</ele>
        <time>2025-02-01T11:18:41Z</time>
      </trkpt>
      <trkpt lat="48.18992" lon="6.52457">
        <ele>409.9</ele>
        <time>2025-02-01T11:19:01Z</time>
      </trkpt>
      <trkpt lat="48.18992" lon="6.52457">
        <ele>409.9</ele>
        <time>2025-02-01T11:19:02Z</time>
      </trkpt>
      <trkpt lat="48.18993" lon="6.52458">
        <ele>409.4</ele>
        <time>2025-02-01T11:19:03Z</time>
      </trkpt>
      <trkpt lat="48.19002" lon="6.52461">
        <ele>407.8</ele>
        <time>2025-02-01T11:19:11Z</time>
      </trkpt>
      <trkpt lat="48.19011" lon="6.52467">
        <ele>406.3</ele>
        <time>2025-02-01T11:19:22Z</time>
      </trkpt>
      <trkpt lat="48.19021" lon="6.52473">
        <ele>403.9</ele>
        <time>2025-02-01T11:19:32Z</time>
      </trkpt>
      <trkpt lat="48.19031" lon="6.52474">
        <ele>403.1</ele>
        <time>2025-02-01T11:19:41Z</time>
      </trkpt>
      <trkpt lat="48.1904" lon="6.52474">
        <ele>402.4</ele>
        <time>2025-02-01T11:19:47Z</time>
      </trkpt>
      <trkpt lat="48.19044" lon="6.52475">
        <ele>402.1</ele>
        <time>2025-02-01T11:19:52Z</time>
      </trkpt>
      <trkpt lat="48.19046" lon="6.52475">
        <ele>401.7</ele>
        <time>2025-02-01T11:19:53Z</time>
      </trkpt>
      <trkpt lat="48.19047" lon="6.52475">
        <ele>401.4</ele>
        <time>2025-02-01T11:19:54Z</time>
      </trkpt>
      <trkpt lat="48.1905" lon="6.52476">
        <ele>401.1</ele>
        <time>2025-02-01T11:19:57Z</time>
      </trkpt>
      <trkpt lat="48.19051" lon="6.52476">
        <ele>400.8</ele>
        <time>2025-02-01T11:19:58Z</time>
      </trkpt>
      <trkpt lat="48.19053" lon="6.52469">
        <ele>400.9</ele>
        <time>2025-02-01T11:20:09Z</time>
      </trkpt>
      <trkpt lat="48.19053" lon="6.52469">
        <ele>400.6</ele>
        <time>2025-02-01T11:20:10Z</time>
      </trkpt>
      <trkpt lat="48.19053" lon="6.52469">
        <ele>400.4</ele>
        <time>2025-02-01T11:20:14Z</time>
      </trkpt>
      <trkpt lat="48.19054" lon="6.52468">
        <ele>400.2</ele>
        <time>2025-02-01T11:20:15Z</time>
      </trkpt>
      <trkpt lat="48.19055" lon="6.52468">
        <ele>399.9</ele>
        <time>2025-02-01T11:20:16Z</time>
      </trkpt>
      <trkpt lat="48.19062" lon="6.52479">
        <ele>398.2</ele>
        <time>2025-02-01T11:20:28Z</time>
      </trkpt>
      <trkpt lat="48.19063" lon="6.52485">
        <ele>397.1</ele>
        <time>2025-02-01T11:20:40Z</time>
      </trkpt>
      <trkpt lat="48.19063" lon="6.52485">
        <ele>396.9</ele>
        <time>2025-02-01T11:20:41Z</time>
      </trkpt>
      <trkpt lat="48.19063" lon="6.52485">
        <ele>396.7</ele>
        <time>2025-02-01T11:20:47Z</time>
      </trkpt>
      <trkpt lat="48.19063" lon="6.52485">
        <ele>396.4</ele>
        <time>2025-02-01T11:20:48Z</time>
      </trkpt>
      <trkpt lat="48.19063" lon="6.52485">
        <ele>396.2</ele>
        <time>2025-02-01T11:20:49Z</time>
      </trkpt>
      <trkpt lat="48.19063" lon="6.52485">
        <ele>395.9</ele>
        <time>2025-02-01T11:20:50Z</time>
      </trkpt>
      <trkpt lat="48.19063" lon="6.52485">
        <ele>395.7</ele>
        <time>2025-02-01T11:20:51Z</time>
      </trkpt>
      <trkpt lat="48.19064" lon="6.52483">
        <ele>395.8</ele>
        <time>2025-02-01T11:21:12Z</time>
      </trkpt>
      <trkpt lat="48.19064" lon="6.52483">
        <ele>395.6</ele>
        <time>2025-02-01T11:21:13Z</time>
      </trkpt>
      <trkpt lat="48.19064" lon="6.52484">
        <ele>395.4</ele>
        <time>2025-02-01T11:21:14Z</time>
      </trkpt>
      <trkpt lat="48.1907" lon="6.52495">
        <ele>393.6</ele>
        <time>2025-02-01T11:21:36Z</time>
      </trkpt>
      <trkpt lat="48.19076" lon="6.52505">
        <ele>392.1</ele>
        <time>2025-02-01T11:21:50Z</time>
      </trkpt>
      <trkpt lat="48.19082" lon="6.52517">
        <ele>390.2</ele>
        <time>2025-02-01T11:21:58Z</time>
      </trkpt>
      <trkpt lat="48.19089" lon="6.52524">
        <ele>388.5</ele>
        <time>2025-02-01T11:22:04Z</time>
      </trkpt>
      <trkpt lat="48.19096" lon="6.52536">
        <ele>386.4</ele>
        <time>2025-02-01T11:22:13Z</time>
      </trkpt>
      <trkpt lat="48.19093" lon="6.52522">
        <ele>386.6</ele>
        <time>2025-02-01T11:22:31Z</time>
      </trkpt>
      <trkpt lat="48.19096" lon="6.52509">
        <ele>386.6</ele>
        <time>2025-02-01T11:22:41Z</time>
      </trkpt>
      <trkpt lat="48.19099" lon="6.52494">
        <ele>386.5</ele>
        <time>2025-02-01T11:22:49Z</time>
      </trkpt>
      <trkpt lat="48.19102" lon="6.52481">
        <ele>386.3</ele>
        <time>2025-02-01T11:22:57Z</time>
      </trkpt>
      <trkpt lat="48.19104" lon="6.52468">
        <ele>386.1</ele>
        <time>2025-02-01T11:23:08Z</time>
      </trkpt>
      <trkpt lat="48.19106" lon="6.52454">
        <ele>385.8</ele>
        <time>2025-02-01T11:23:16Z</time>
      </trkpt>
      <trkpt lat="48.19109" lon="6.52441">
        <ele>385.6</ele>
        <time>2025-02-01T11:23:25Z</time>
      </trkpt>
      <trkpt lat="48.19109" lon="6.52426">
        <ele>385.4</ele>
        <time>2025-02-01T11:23:32Z</time>
      </trkpt>
      <trkpt lat="48.19109" lon="6.52412">
        <ele>385.3</ele>
        <time>2025-02-01T11:23:40Z</time>
      </trkpt>
      <trkpt lat="48.19109" lon="6.52398">
        <ele>385.3</ele>
        <time>2025-02-01T11:23:48Z</time>
      </trkpt>
      <trkpt lat="48.19117" lon="6.52386">
        <ele>385.3</ele>
        <time>2025-02-01T11:23:55Z</time>
      </trkpt>
      <trkpt lat="48.19125" lon="6.52382">
        <ele>385.4</ele>
        <time>2025-02-01T11:23:59Z</time>
      </trkpt>
      <trkpt lat="48.19134" lon="6.52373">
        <ele>385.5</ele>
        <time>2025-02-01T11:24:05Z</time>
      </trkpt>
      <trkpt lat="48.19144" lon="6.52367">
        <ele>385.5</ele>
        <time>2025-02-01T11:24:10Z</time>
      </trkpt>
      <trkpt lat="48.19151" lon="6.52357">
        <ele>385.4</ele>
        <time>2025-02-01T11:24:17Z</time>
      </trkpt>
      <trkpt lat="48.19157" lon="6.52345">
        <ele>385.3</ele>
        <time>2025-02-01T11:24:22Z</time>
      </trkpt>
      <trkpt lat="48.19164" lon="6.52334">
        <ele>385.1</ele>
        <time>2025-02-01T11:24:28Z</time>
      </trkpt>
      <trkpt lat="48.19171" lon="6.52325">
        <ele>385</ele>
        <time>2025-02-01T11:24:35Z</time>
      </trkpt>
      <trkpt lat="48.19176" lon="6.52314">
        <ele>385</ele>
        <time>2025-02-01T11:24:44Z</time>
      </trkpt>
      <trkpt lat="48.19183" lon="6.52304">
        <ele>385</ele>
        <time>2025-02-01T11:24:49Z</time>
      </trkpt>
      <trkpt lat="48.19188" lon="6.52292">
        <ele>384.9</ele>
        <time>2025-02-01T11:24:54Z</time>
      </trkpt>
      <trkpt lat="48.19194" lon="6.5228">
        <ele>384.9</ele>
        <time>2025-02-01T11:25:01Z</time>
      </trkpt>
      <trkpt lat="48.19198" lon="6.52268">
        <ele>384.9</ele>
        <time>2025-02-01T11:25:08Z</time>
      </trkpt>
      <trkpt lat="48.19205" lon="6.52256">
        <ele>384.8</ele>
        <time>2025-02-01T11:25:15Z</time>
      </trkpt>
      <trkpt lat="48.1921" lon="6.52245">
        <ele>384.7</ele>
        <time>2025-02-01T11:25:24Z</time>
      </trkpt>
      <trkpt lat="48.19215" lon="6.52231">
        <ele>384.6</ele>
        <time>2025-02-01T11:25:35Z</time>
      </trkpt>
      <trkpt lat="48.19216" lon="6.52217">
        <ele>384.5</ele>
        <time>2025-02-01T11:25:42Z</time>
      </trkpt>
      <trkpt lat="48.19214" lon="6.52203">
        <ele>384.2</ele>
        <time>2025-02-01T11:25:49Z</time>
      </trkpt>
      <trkpt lat="48.19213" lon="6.52189">
        <ele>383.9</ele>
        <time>2025-02-01T11:25:56Z</time>
      </trkpt>
      <trkpt lat="48.1921" lon="6.52174">
        <ele>383.4</ele>
        <time>2025-02-01T11:26:04Z</time>
      </trkpt>
      <trkpt lat="48.19209" lon="6.52165">
        <ele>383.1</ele>
        <time>2025-02-01T11:26:09Z</time>
      </trkpt>
      <trkpt lat="48.19209" lon="6.52165">
        <ele>383.1</ele>
        <time>2025-02-01T11:26:10Z</time>
      </trkpt>
      <trkpt lat="48.19209" lon="6.52165">
        <ele>383.1</ele>
        <time>2025-02-01T11:26:11Z</time>
      </trkpt>
      <trkpt lat="48.19208" lon="6.52157">
        <ele>382.9</ele>
        <time>2025-02-01T11:26:20Z</time>
      </trkpt>
      <trkpt lat="48.19207" lon="6.52156">
        <ele>382.9</ele>
        <time>2025-02-01T11:26:21Z</time>
      </trkpt>
      <trkpt lat="48.19207" lon="6.52155">
        <ele>382.9</ele>
        <time>2025-02-01T11:26:22Z</time>
      </trkpt>
      <trkpt lat="48.19204" lon="6.52141">
        <ele>382.4</ele>
        <time>2025-02-01T11:26:31Z</time>
      </trkpt>
      <trkpt lat="48.19202" lon="6.52127">
        <ele>381.9</ele>
        <time>2025-02-01T11:26:40Z</time>
      </trkpt>
      <trkpt lat="48.192" lon="6.52113">
        <ele>381.5</ele>
        <time>2025-02-01T11:26:49Z</time>
      </trkpt>
      <trkpt lat="48.19197" lon="6.52099">
        <ele>381.2</ele>
        <time>2025-02-01T11:26:56Z</time>
      </trkpt>
      <trkpt lat="48.19193" lon="6.52086">
        <ele>380.9</ele>
        <time>2025-02-01T11:27:04Z</time>
      </trkpt>
      <trkpt lat="48.19189" lon="6.52072">
        <ele>380.6</ele>
        <time>2025-02-01T11:27:15Z</time>
      </trkpt>
      <trkpt lat="48.19181" lon="6.52065">
        <ele>380.5</ele>
        <time>2025-02-01T11:27:24Z</time>
      </trkpt>
      <trkpt lat="48.19171" lon="6.52061">
        <ele>380.7</ele>
        <time>2025-02-01T11:27:31Z</time>
      </trkpt>
      <trkpt lat="48.19162" lon="6.52057">
        <ele>381</ele>
        <time>2025-02-01T11:27:38Z</time>
      </trkpt>
      <trkpt lat="48.19153" lon="6.52058">
        <ele>381.4</ele>
        <time>2025-02-01T11:27:48Z</time>
      </trkpt>
      <trkpt lat="48.19147" lon="6.52053">
        <ele>381.8</ele>
        <time>2025-02-01T11:27:57Z</time>
      </trkpt>
      <trkpt lat="48.19147" lon="6.52053">
        <ele>381.9</ele>
        <time>2025-02-01T11:27:58Z</time>
      </trkpt>
      <trkpt lat="48.19146" lon="6.52053">
        <ele>381.9</ele>
        <time>2025-02-01T11:27:59Z</time>
      </trkpt>
      <trkpt lat="48.19146" lon="6.52052">
        <ele>381.9</ele>
        <time>2025-02-01T11:28:00Z</time>
      </trkpt>
      <trkpt lat="48.19138" lon="6.52045">
        <ele>382.7</ele>
        <time>2025-02-01T11:28:13Z</time>
      </trkpt>
      <trkpt lat="48.1913" lon="6.5204">
        <ele>383.5</ele>
        <time>2025-02-01T11:28:23Z</time>
      </trkpt>
      <trkpt lat="48.19121" lon="6.52033">
        <ele>384.3</ele>
        <time>2025-02-01T11:28:35Z</time>
      </trkpt>
      <trkpt lat="48.19114" lon="6.52025">
        <ele>385.2</ele>
        <time>2025-02-01T11:28:45Z</time>
      </trkpt>
      <trkpt lat="48.19107" lon="6.52016">
        <ele>386.1</ele>
        <time>2025-02-01T11:28:53Z</time>
      </trkpt>
      <trkpt lat="48.19102" lon="6.52003">
        <ele>387.1</ele>
        <time>2025-02-01T11:29:03Z</time>
      </trkpt>
      <trkpt lat="48.19098" lon="6.5199">
        <ele>388.1</ele>
        <time>2025-02-01T11:29:16Z</time>
      </trkpt>
      <trkpt lat="48.19093" lon="6.51978">
        <ele>389</ele>
        <time>2025-02-01T11:29:26Z</time>
      </trkpt>
      <trkpt lat="48.19088" lon="6.51966">
        <ele>389.8</ele>
        <time>2025-02-01T11:29:35Z</time>
      </trkpt>
      <trkpt lat="48.19087" lon="6.51952">
        <ele>390.6</ele>
        <time>2025-02-01T11:29:42Z</time>
      </trkpt>
      <trkpt lat="48.19092" lon="6.51939">
        <ele>391.1</ele>
        <time>2025-02-01T11:29:50Z</time>
      </trkpt>
      <trkpt lat="48.19097" lon="6.51926">
        <ele>391.4</ele>
        <time>2025-02-01T11:29:59Z</time>
      </trkpt>
      <trkpt lat="48.19105" lon="6.51919">
        <ele>391.7</ele>
        <time>2025-02-01T11:30:05Z</time>
      </trkpt>
      <trkpt lat="48.19111" lon="6.51908">
        <ele>392</ele>
        <time>2025-02-01T11:30:13Z</time>
      </trkpt>
      <trkpt lat="48.19116" lon="6.51896">
        <ele>391.6</ele>
        <time>2025-02-01T11:30:22Z</time>
      </trkpt>
      <trkpt lat="48.19121" lon="6.51892">
        <ele>391.2</ele>
        <time>2025-02-01T11:30:30Z</time>
      </trkpt>
      <trkpt lat="48.19121" lon="6.51892">
        <ele>391.2</ele>
        <time>2025-02-01T11:30:31Z</time>
      </trkpt>
      <trkpt lat="48.19121" lon="6.51892">
        <ele>391.2</ele>
        <time>2025-02-01T11:30:32Z</time>
      </trkpt>
      <trkpt lat="48.19121" lon="6.51892">
        <ele>391.1</ele>
        <time>2025-02-01T11:30:33Z</time>
      </trkpt>
      <trkpt lat="48.19122" lon="6.5189">
        <ele>391</ele>
        <time>2025-02-01T11:30:39Z</time>
      </trkpt>
      <trkpt lat="48.19122" lon="6.5189">
        <ele>391</ele>
        <time>2025-02-01T11:30:40Z</time>
      </trkpt>
      <trkpt lat="48.19123" lon="6.51889">
        <ele>390.9</ele>
        <time>2025-02-01T11:30:41Z</time>
      </trkpt>
      <trkpt lat="48.19123" lon="6.51888">
        <ele>390.9</ele>
        <time>2025-02-01T11:30:42Z</time>
      </trkpt>
      <trkpt lat="48.19124" lon="6.51888">
        <ele>390.8</ele>
        <time>2025-02-01T11:30:43Z</time>
      </trkpt>
      <trkpt lat="48.19132" lon="6.51881">
        <ele>389.8</ele>
        <time>2025-02-01T11:30:51Z</time>
      </trkpt>
      <trkpt lat="48.19134" lon="6.51881">
        <ele>389.6</ele>
        <time>2025-02-01T11:30:54Z</time>
      </trkpt>
      <trkpt lat="48.19135" lon="6.51881">
        <ele>389.5</ele>
        <time>2025-02-01T11:30:55Z</time>
      </trkpt>
      <trkpt lat="48.19135" lon="6.5188">
        <ele>389.5</ele>
        <time>2025-02-01T11:30:56Z</time>
      </trkpt>
      <trkpt lat="48.19136" lon="6.5188">
        <ele>389.4</ele>
        <time>2025-02-01T11:30:57Z</time>
      </trkpt>
      <trkpt lat="48.19137" lon="6.51879">
        <ele>389.3</ele>
        <time>2025-02-01T11:30:58Z</time>
      </trkpt>
      <trkpt lat="48.19144" lon="6.51874">
        <ele>388.3</ele>
        <time>2025-02-01T11:31:11Z</time>
      </trkpt>
      <trkpt lat="48.19144" lon="6.51874">
        <ele>388.3</ele>
        <time>2025-02-01T11:31:12Z</time>
      </trkpt>
      <trkpt lat="48.19144" lon="6.51874">
        <ele>388.3</ele>
        <time>2025-02-01T11:31:13Z</time>
      </trkpt>
      <trkpt lat="48.19144" lon="6.51874">
        <ele>388.3</ele>
        <time>2025-02-01T11:31:14Z</time>
      </trkpt>
      <trkpt lat="48.19145" lon="6.51874">
        <ele>388.2</ele>
        <time>2025-02-01T11:31:15Z</time>
      </trkpt>
      <trkpt lat="48.19154" lon="6.51869">
        <ele>387</ele>
        <time>2025-02-01T11:31:26Z</time>
      </trkpt>
      <trkpt lat="48.19163" lon="6.51871">
        <ele>385.7</ele>
        <time>2025-02-01T11:31:35Z</time>
      </trkpt>
      <trkpt lat="48.19173" lon="6.51868">
        <ele>384.7</ele>
        <time>2025-02-01T11:31:46Z</time>
      </trkpt>
      <trkpt lat="48.19181" lon="6.51861">
        <ele>384</ele>
        <time>2025-02-01T11:31:59Z</time>
      </trkpt>
      <trkpt lat="48.19189" lon="6.51856">
        <ele>383.4</ele>
        <time>2025-02-01T11:32:09Z</time>
      </trkpt>
      <trkpt lat="48.19198" lon="6.51853">
        <ele>382.9</ele>
        <time>2025-02-01T11:32:19Z</time>
      </trkpt>
      <trkpt lat="48.19208" lon="6.51849">
        <ele>382.6</ele>
        <time>2025-02-01T11:32:26Z</time>
      </trkpt>
      <trkpt lat="48.19219" lon="6.51846">
        <ele>382.3</ele>
        <time>2025-02-01T11:32:33Z</time>
      </trkpt>
      <trkpt lat="48.19228" lon="6.5184">
        <ele>382.1</ele>
        <time>2025-02-01T11:32:39Z</time>
      </trkpt>
      <trkpt lat="48.19236" lon="6.51835">
        <ele>381.8</ele>
        <time>2025-02-01T11:32:48Z</time>
      </trkpt>
      <trkpt lat="48.19239" lon="6.51833">
        <ele>381.7</ele>
        <time>2025-02-01T11:32:54Z</time>
      </trkpt>
      <trkpt lat="48.1924" lon="6.51831">
        <ele>381.7</ele>
        <time>2025-02-01T11:32:55Z</time>
      </trkpt>
      <trkpt lat="48.19244" lon="6.51829">
        <ele>381.6</ele>
        <time>2025-02-01T11:32:59Z</time>
      </trkpt>
      <trkpt lat="48.19246" lon="6.51829">
        <ele>381.5</ele>
        <time>2025-02-01T11:33:00Z</time>
      </trkpt>
      <trkpt lat="48.19255" lon="6.51826">
        <ele>381.2</ele>
        <time>2025-02-01T11:33:12Z</time>
      </trkpt>
      <trkpt lat="48.19263" lon="6.5182">
        <ele>381</ele>
        <time>2025-02-01T11:33:21Z</time>
      </trkpt>
      <trkpt lat="48.1927" lon="6.5181">
        <ele>380.8</ele>
        <time>2025-02-01T11:33:31Z</time>
      </trkpt>
      <trkpt lat="48.19277" lon="6.51801">
        <ele>380.7</ele>
        <time>2025-02-01T11:33:38Z</time>
      </trkpt>
      <trkpt lat="48.19283" lon="6.5179">
        <ele>380.5</ele>
        <time>2025-02-01T11:33:48Z</time>
      </trkpt>
      <trkpt lat="48.19286" lon="6.51775">
        <ele>380</ele>
        <time>2025-02-01T11:34:00Z</time>
      </trkpt>
      <trkpt lat="48.19291" lon="6.51764">
        <ele>379.4</ele>
        <time>2025-02-01T11:34:09Z</time>
      </trkpt>
      <trkpt lat="48.19297" lon="6.5175">
        <ele>378.5</ele>
        <time>2025-02-01T11:34:15Z</time>
      </trkpt>
      <trkpt lat="48.19301" lon="6.51736">
        <ele>377.6</ele>
        <time>2025-02-01T11:34:25Z</time>
      </trkpt>
      <trkpt lat="48.19303" lon="6.51721">
        <ele>376.9</ele>
        <time>2025-02-01T11:34:31Z</time>
      </trkpt>
      <trkpt lat="48.19308" lon="6.51707">
        <ele>376.4</ele>
        <time>2025-02-01T11:34:36Z</time>
      </trkpt>
      <trkpt lat="48.19308" lon="6.51691">
        <ele>376</ele>
        <time>2025-02-01T11:34:47Z</time>
      </trkpt>
      <trkpt lat="48.19308" lon="6.51676">
        <ele>375.6</ele>
        <time>2025-02-01T11:34:54Z</time>
      </trkpt>
      <trkpt lat="48.19309" lon="6.51662">
        <ele>375.1</ele>
        <time>2025-02-01T11:35:02Z</time>
      </trkpt>
      <trkpt lat="48.1931" lon="6.51648">
        <ele>374.5</ele>
        <time>2025-02-01T11:35:08Z</time>
      </trkpt>
      <trkpt lat="48.19314" lon="6.51634">
        <ele>373.9</ele>
        <time>2025-02-01T11:35:17Z</time>
      </trkpt>
      <trkpt lat="48.19319" lon="6.51621">
        <ele>373.3</ele>
        <time>2025-02-01T11:35:24Z</time>
      </trkpt>
      <trkpt lat="48.19318" lon="6.51607">
        <ele>372.8</ele>
        <time>2025-02-01T11:35:31Z</time>
      </trkpt>
      <trkpt lat="48.1932" lon="6.51592">
        <ele>372.5</ele>
        <time>2025-02-01T11:35:39Z</time>
      </trkpt>
      <trkpt lat="48.1932" lon="6.51579">
        <ele>372.2</ele>
        <time>2025-02-01T11:35:46Z</time>
      </trkpt>
      <trkpt lat="48.19321" lon="6.51566">
        <ele>372</ele>
        <time>2025-02-01T11:35:54Z</time>
      </trkpt>
      <trkpt lat="48.19321" lon="6.51566">
        <ele>372</ele>
        <time>2025-02-01T11:35:54Z</time>
      </trkpt>
      <trkpt lat="48.19321" lon="6.51566">
        <ele>372</ele>
        <time>2025-02-01T11:35:54Z</time>
      </trkpt>
    </trkseg>
  </trk>
</gpx>